sensor_id;sensor_type;location;lat;lon;timestamp;P1;durP1;ratioP1;P2;durP2;ratioP2
14939;SDS011;11825;51.898;8.202;2023-01-09T00:05:09;1.53;;;1.20;;
14939;SDS011;11825;51.898;8.202;2023-01-09T00:20:59;2.93;;;1.47;;
14939;SDS011;11825;51.898;8.202;2023-01-09T00:26:15;1.60;;;1.50;;
14939;SDS011;11825;51.898;8.202;2023-01-09T00:31:20;2.60;;;1.13;;
14939;SDS011;11825;51.898;8.202;2023-01-09T00:36:22;3.03;;;1.50;;
14939;SDS011;11825;51.898;8.202;2023-01-09T00:41:42;4.30;;;1.50;;
14939;SDS011;11825;51.898;8.202;2023-01-09T00:46:47;1.63;;;1.40;;
14939;SDS011;11825;51.898;8.202;2023-01-09T00:51:50;1.60;;;1.40;;
14939;SDS011;11825;51.898;8.202;2023-01-09T00:56:55;2.53;;;1.50;;
14939;SDS011;11825;51.898;8.202;2023-01-09T01:01:59;3.20;;;1.90;;
14939;SDS011;11825;51.898;8.202;2023-01-09T01:07:02;2.33;;;1.40;;
14939;SDS011;11825;51.898;8.202;2023-01-09T01:12:27;2.33;;;1.30;;
14939;SDS011;11825;51.898;8.202;2023-01-09T01:17:35;1.33;;;1.23;;
14939;SDS011;11825;51.898;8.202;2023-01-09T01:22:37;1.43;;;1.33;;
14939;SDS011;11825;51.898;8.202;2023-01-09T01:27:43;2.03;;;1.10;;
14939;SDS011;11825;51.898;8.202;2023-01-09T01:32:47;2.20;;;1.33;;
14939;SDS011;11825;51.898;8.202;2023-01-09T01:37:49;1.70;;;0.97;;
14939;SDS011;11825;51.898;8.202;2023-01-09T01:42:51;2.60;;;1.13;;
14939;SDS011;11825;51.898;8.202;2023-01-09T01:47:58;1.00;;;1.00;;
14939;SDS011;11825;51.898;8.202;2023-01-09T01:53:24;2.03;;;0.80;;
14939;SDS011;11825;51.898;8.202;2023-01-09T01:58:35;0.40;;;0.40;;
14939;SDS011;11825;51.898;8.202;2023-01-09T02:03:45;0.63;;;0.60;;
14939;SDS011;11825;51.898;8.202;2023-01-09T02:08:49;0.73;;;0.50;;
14939;SDS011;11825;51.898;8.202;2023-01-09T02:13:55;1.60;;;0.67;;
14939;SDS011;11825;51.898;8.202;2023-01-09T02:35:51;1.10;;;0.50;;
14939;SDS011;11825;51.898;8.202;2023-01-09T02:46:22;2.77;;;0.50;;
14939;SDS011;11825;51.898;8.202;2023-01-09T03:02:54;0.43;;;0.40;;
14939;SDS011;11825;51.898;8.202;2023-01-09T03:08:07;0.40;;;0.30;;
14939;SDS011;11825;51.898;8.202;2023-01-09T03:13:14;0.20;;;0.20;;
14939;SDS011;11825;51.898;8.202;2023-01-09T03:18:20;0.40;;;0.40;;
14939;SDS011;11825;51.898;8.202;2023-01-09T03:23:24;0.50;;;0.50;;
14939;SDS011;11825;51.898;8.202;2023-01-09T03:28:27;0.50;;;0.50;;
14939;SDS011;11825;51.898;8.202;2023-01-09T03:33:29;0.93;;;0.93;;
14939;SDS011;11825;51.898;8.202;2023-01-09T03:38:31;2.53;;;1.43;;
14939;SDS011;11825;51.898;8.202;2023-01-09T03:43:36;1.90;;;1.67;;
14939;SDS011;11825;51.898;8.202;2023-01-09T03:48:41;1.57;;;1.47;;
14939;SDS011;11825;51.898;8.202;2023-01-09T03:53:47;2.13;;;1.93;;
14939;SDS011;11825;51.898;8.202;2023-01-09T03:58:51;2.37;;;2.13;;
14939;SDS011;11825;51.898;8.202;2023-01-09T04:03:53;3.13;;;2.83;;
14939;SDS011;11825;51.898;8.202;2023-01-09T04:08:55;2.83;;;2.60;;
14939;SDS011;11825;51.898;8.202;2023-01-09T04:13:57;3.63;;;2.63;;
14939;SDS011;11825;51.898;8.202;2023-01-09T04:18:59;5.00;;;2.80;;
14939;SDS011;11825;51.898;8.202;2023-01-09T04:24:01;3.23;;;2.77;;
14939;SDS011;11825;51.898;8.202;2023-01-09T04:29:13;3.60;;;3.30;;
14939;SDS011;11825;51.898;8.202;2023-01-09T04:39:37;4.87;;;3.70;;
14939;SDS011;11825;51.898;8.202;2023-01-09T04:44:43;5.43;;;4.93;;
14939;SDS011;11825;51.898;8.202;2023-01-09T04:49:44;7.30;;;5.77;;
14939;SDS011;11825;51.898;8.202;2023-01-09T04:54:46;8.53;;;7.20;;
14939;SDS011;11825;51.898;8.202;2023-01-09T04:59:48;8.03;;;6.03;;
14939;SDS011;11825;51.898;8.202;2023-01-09T05:04:52;8.60;;;6.33;;
14939;SDS011;11825;51.898;8.202;2023-01-09T05:09:54;7.23;;;5.93;;
14939;SDS011;11825;51.898;8.202;2023-01-09T05:14:55;7.57;;;5.57;;
14939;SDS011;11825;51.898;8.202;2023-01-09T05:19:58;7.77;;;5.67;;
14939;SDS011;11825;51.898;8.202;2023-01-09T05:25:01;8.37;;;5.83;;
14939;SDS011;11825;51.898;8.202;2023-01-09T05:30:03;7.57;;;5.73;;
14939;SDS011;11825;51.898;8.202;2023-01-09T05:35:05;7.87;;;5.23;;
14939;SDS011;11825;51.898;8.202;2023-01-09T05:40:11;6.33;;;5.57;;
14939;SDS011;11825;51.898;8.202;2023-01-09T05:45:13;6.83;;;5.13;;
14939;SDS011;11825;51.898;8.202;2023-01-09T05:50:15;7.73;;;6.37;;
14939;SDS011;11825;51.898;8.202;2023-01-09T05:55:17;11.47;;;7.10;;
14939;SDS011;11825;51.898;8.202;2023-01-09T06:00:19;9.93;;;8.67;;
14939;SDS011;11825;51.898;8.202;2023-01-09T06:05:21;16.53;;;9.93;;
14939;SDS011;11825;51.898;8.202;2023-01-09T06:10:23;8.70;;;7.23;;
14939;SDS011;11825;51.898;8.202;2023-01-09T06:15:25;9.07;;;6.50;;
14939;SDS011;11825;51.898;8.202;2023-01-09T06:20:27;7.57;;;5.53;;
14939;SDS011;11825;51.898;8.202;2023-01-09T06:25:28;6.20;;;4.20;;
14939;SDS011;11825;51.898;8.202;2023-01-09T06:30:30;7.10;;;4.00;;
14939;SDS011;11825;51.898;8.202;2023-01-09T06:35:32;7.50;;;4.40;;
14939;SDS011;11825;51.898;8.202;2023-01-09T06:40:33;8.43;;;3.57;;
14939;SDS011;11825;51.898;8.202;2023-01-09T06:45:35;7.33;;;3.37;;
14939;SDS011;11825;51.898;8.202;2023-01-09T06:50:37;4.70;;;3.30;;
14939;SDS011;11825;51.898;8.202;2023-01-09T06:55:39;4.50;;;3.70;;
14939;SDS011;11825;51.898;8.202;2023-01-09T07:00:41;7.00;;;3.30;;
14939;SDS011;11825;51.898;8.202;2023-01-09T07:05:43;7.27;;;2.80;;
14939;SDS011;11825;51.898;8.202;2023-01-09T07:10:44;3.90;;;3.43;;
14939;SDS011;11825;51.898;8.202;2023-01-09T07:15:46;4.53;;;3.73;;
14939;SDS011;11825;51.898;8.202;2023-01-09T07:20:50;5.93;;;3.07;;
14939;SDS011;11825;51.898;8.202;2023-01-09T07:25:52;5.57;;;3.17;;
14939;SDS011;11825;51.898;8.202;2023-01-09T07:30:54;6.00;;;3.97;;
14939;SDS011;11825;51.898;8.202;2023-01-09T07:35:56;5.13;;;3.10;;
14939;SDS011;11825;51.898;8.202;2023-01-09T07:40:57;8.33;;;3.17;;
14939;SDS011;11825;51.898;8.202;2023-01-09T07:45:59;15.40;;;3.67;;
14939;SDS011;11825;51.898;8.202;2023-01-09T07:51:01;3.43;;;2.90;;
14939;SDS011;11825;51.898;8.202;2023-01-09T07:56:03;6.53;;;2.00;;
14939;SDS011;11825;51.898;8.202;2023-01-09T08:01:05;5.40;;;2.70;;
14939;SDS011;11825;51.898;8.202;2023-01-09T08:06:07;5.57;;;1.73;;
14939;SDS011;11825;51.898;8.202;2023-01-09T08:11:10;9.93;;;2.87;;
14939;SDS011;11825;51.898;8.202;2023-01-09T08:16:12;7.47;;;2.43;;
14939;SDS011;11825;51.898;8.202;2023-01-09T08:21:13;7.93;;;2.40;;
14939;SDS011;11825;51.898;8.202;2023-01-09T08:26:15;4.23;;;2.20;;
14939;SDS011;11825;51.898;8.202;2023-01-09T08:31:17;8.23;;;2.00;;
14939;SDS011;11825;51.898;8.202;2023-01-09T08:36:19;3.67;;;2.77;;
14939;SDS011;11825;51.898;8.202;2023-01-09T08:41:21;9.23;;;2.13;;
14939;SDS011;11825;51.898;8.202;2023-01-09T08:46:41;3.53;;;1.27;;
14939;SDS011;11825;51.898;8.202;2023-01-09T08:52:02;4.63;;;1.37;;
14939;SDS011;11825;51.898;8.202;2023-01-09T08:57:05;2.33;;;1.60;;
14939;SDS011;11825;51.898;8.202;2023-01-09T09:02:07;4.10;;;1.60;;
14939;SDS011;11825;51.898;8.202;2023-01-09T09:07:09;1.40;;;1.00;;
14939;SDS011;11825;51.898;8.202;2023-01-09T09:12:11;4.57;;;1.00;;
14939;SDS011;11825;51.898;8.202;2023-01-09T09:17:13;1.53;;;0.93;;
14939;SDS011;11825;51.898;8.202;2023-01-09T09:22:14;3.80;;;1.20;;
14939;SDS011;11825;51.898;8.202;2023-01-09T09:27:16;2.93;;;0.87;;
14939;SDS011;11825;51.898;8.202;2023-01-09T09:32:18;2.03;;;1.17;;
14939;SDS011;11825;51.898;8.202;2023-01-09T09:37:19;1.03;;;0.90;;
14939;SDS011;11825;51.898;8.202;2023-01-09T09:53:20;3.87;;;1.57;;
14939;SDS011;11825;51.898;8.202;2023-01-09T09:58:39;4.10;;;1.40;;
14939;SDS011;11825;51.898;8.202;2023-01-09T10:03:48;6.53;;;1.83;;
14939;SDS011;11825;51.898;8.202;2023-01-09T10:09:07;2.83;;;1.70;;
14939;SDS011;11825;51.898;8.202;2023-01-09T10:14:30;3.03;;;1.23;;
14939;SDS011;11825;51.898;8.202;2023-01-09T10:30:36;5.07;;;1.60;;
14939;SDS011;11825;51.898;8.202;2023-01-09T10:41:41;6.27;;;1.37;;
14939;SDS011;11825;51.898;8.202;2023-01-09T10:46:21;5.60;;;1.80;;
14939;SDS011;11825;51.898;8.202;2023-01-09T10:51:31;1.27;;;1.17;;
14939;SDS011;11825;51.898;8.202;2023-01-09T10:56:38;1.80;;;0.77;;
14939;SDS011;11825;51.898;8.202;2023-01-09T11:01:41;2.77;;;1.10;;
14939;SDS011;11825;51.898;8.202;2023-01-09T11:06:44;1.13;;;0.73;;
14939;SDS011;11825;51.898;8.202;2023-01-09T11:11:48;2.00;;;1.30;;
14939;SDS011;11825;51.898;8.202;2023-01-09T11:16:53;1.20;;;1.10;;
14939;SDS011;11825;51.898;8.202;2023-01-09T11:22:04;3.87;;;1.67;;
14939;SDS011;11825;51.898;8.202;2023-01-09T11:27:18;3.43;;;1.50;;
14939;SDS011;11825;51.898;8.202;2023-01-09T11:32:31;5.20;;;1.93;;
14939;SDS011;11825;51.898;8.202;2023-01-09T11:37:33;3.93;;;2.50;;
14939;SDS011;11825;51.898;8.202;2023-01-09T11:42:35;3.60;;;1.13;;
14939;SDS011;11825;51.898;8.202;2023-01-09T11:47:52;1.77;;;1.67;;
14939;SDS011;11825;51.898;8.202;2023-01-09T11:53:10;2.27;;;1.73;;
14939;SDS011;11825;51.898;8.202;2023-01-09T11:58:18;4.37;;;1.77;;
14939;SDS011;11825;51.898;8.202;2023-01-09T12:09:07;4.97;;;1.83;;
14939;SDS011;11825;51.898;8.202;2023-01-09T12:14:18;3.10;;;1.87;;
14939;SDS011;11825;51.898;8.202;2023-01-09T12:19:50;4.27;;;1.63;;
14939;SDS011;11825;51.898;8.202;2023-01-09T12:30:24;7.30;;;2.17;;
14939;SDS011;11825;51.898;8.202;2023-01-09T12:36:00;2.67;;;1.90;;
14939;SDS011;11825;51.898;8.202;2023-01-09T12:41:19;5.70;;;3.03;;
14939;SDS011;11825;51.898;8.202;2023-01-09T12:47:14;2.57;;;2.30;;
14939;SDS011;11825;51.898;8.202;2023-01-09T12:52:14;2.83;;;2.20;;
14939;SDS011;11825;51.898;8.202;2023-01-09T12:57:29;3.30;;;3.00;;
14939;SDS011;11825;51.898;8.202;2023-01-09T13:02:38;3.63;;;2.23;;
14939;SDS011;11825;51.898;8.202;2023-01-09T13:07:46;3.13;;;2.53;;
14939;SDS011;11825;51.898;8.202;2023-01-09T13:12:49;5.07;;;3.23;;
14939;SDS011;11825;51.898;8.202;2023-01-09T13:17:53;5.37;;;2.47;;
14939;SDS011;11825;51.898;8.202;2023-01-09T13:23:00;6.10;;;3.23;;
14939;SDS011;11825;51.898;8.202;2023-01-09T13:28:45;3.90;;;2.50;;
14939;SDS011;11825;51.898;8.202;2023-01-09T13:33:29;4.17;;;2.43;;
14939;SDS011;11825;51.898;8.202;2023-01-09T13:38:34;3.37;;;2.70;;
14939;SDS011;11825;51.898;8.202;2023-01-09T13:44:19;6.67;;;2.17;;
14939;SDS011;11825;51.898;8.202;2023-01-09T13:49:30;5.47;;;2.73;;
14939;SDS011;11825;51.898;8.202;2023-01-09T14:00:45;7.03;;;3.00;;
14939;SDS011;11825;51.898;8.202;2023-01-09T14:10:26;7.40;;;3.73;;
14939;SDS011;11825;51.898;8.202;2023-01-09T14:15:37;5.03;;;3.27;;
14939;SDS011;11825;51.898;8.202;2023-01-09T14:20:41;3.93;;;2.83;;
14939;SDS011;11825;51.898;8.202;2023-01-09T14:26:04;5.90;;;3.43;;
14939;SDS011;11825;51.898;8.202;2023-01-09T14:31:07;5.80;;;3.33;;
14939;SDS011;11825;51.898;8.202;2023-01-09T14:36:19;3.80;;;3.50;;
14939;SDS011;11825;51.898;8.202;2023-01-09T14:41:34;6.43;;;3.37;;
14939;SDS011;11825;51.898;8.202;2023-01-09T14:46:58;4.90;;;3.80;;
14939;SDS011;11825;51.898;8.202;2023-01-09T14:52:21;4.00;;;3.67;;
14939;SDS011;11825;51.898;8.202;2023-01-09T14:57:29;5.87;;;4.20;;
14939;SDS011;11825;51.898;8.202;2023-01-09T15:02:34;4.97;;;3.83;;
14939;SDS011;11825;51.898;8.202;2023-01-09T15:07:41;6.60;;;4.07;;
14939;SDS011;11825;51.898;8.202;2023-01-09T15:12:47;6.50;;;5.43;;
14939;SDS011;11825;51.898;8.202;2023-01-09T15:17:54;7.53;;;5.23;;
14939;SDS011;11825;51.898;8.202;2023-01-09T15:23:02;9.07;;;6.00;;
14939;SDS011;11825;51.898;8.202;2023-01-09T15:28:20;7.87;;;6.30;;
14939;SDS011;11825;51.898;8.202;2023-01-09T15:33:22;7.13;;;6.13;;
14939;SDS011;11825;51.898;8.202;2023-01-09T15:38:24;9.03;;;5.60;;
14939;SDS011;11825;51.898;8.202;2023-01-09T15:43:28;9.47;;;6.17;;
14939;SDS011;11825;51.898;8.202;2023-01-09T15:48:31;7.67;;;5.93;;
14939;SDS011;11825;51.898;8.202;2023-01-09T15:53:34;6.40;;;5.63;;
14939;SDS011;11825;51.898;8.202;2023-01-09T15:58:39;8.77;;;6.73;;
14939;SDS011;11825;51.898;8.202;2023-01-09T16:03:47;8.20;;;6.50;;
14939;SDS011;11825;51.898;8.202;2023-01-09T16:08:49;10.50;;;7.63;;
14939;SDS011;11825;51.898;8.202;2023-01-09T16:13:54;9.30;;;7.47;;
14939;SDS011;11825;51.898;8.202;2023-01-09T16:18:58;6.13;;;5.53;;
14939;SDS011;11825;51.898;8.202;2023-01-09T16:24:02;7.67;;;5.07;;
14939;SDS011;11825;51.898;8.202;2023-01-09T16:34:36;9.80;;;8.77;;
14939;SDS011;11825;51.898;8.202;2023-01-09T16:39:43;2.63;;;2.23;;
14939;SDS011;11825;51.898;8.202;2023-01-09T16:45:01;1.53;;;1.43;;
14939;SDS011;11825;51.898;8.202;2023-01-09T16:50:07;3.13;;;1.70;;
14939;SDS011;11825;51.898;8.202;2023-01-09T16:55:13;3.00;;;2.07;;
14939;SDS011;11825;51.898;8.202;2023-01-09T17:00:16;2.00;;;1.13;;
14939;SDS011;11825;51.898;8.202;2023-01-09T17:05:20;3.47;;;1.87;;
14939;SDS011;11825;51.898;8.202;2023-01-09T17:10:24;2.60;;;1.30;;
14939;SDS011;11825;51.898;8.202;2023-01-09T17:15:31;1.83;;;1.50;;
14939;SDS011;11825;51.898;8.202;2023-01-09T17:20:36;2.90;;;1.70;;
14939;SDS011;11825;51.898;8.202;2023-01-09T17:25:40;3.10;;;1.70;;
14939;SDS011;11825;51.898;8.202;2023-01-09T17:31:11;3.43;;;2.50;;
14939;SDS011;11825;51.898;8.202;2023-01-09T17:36:47;3.30;;;2.80;;
14939;SDS011;11825;51.898;8.202;2023-01-09T17:41:42;3.77;;;2.80;;
14939;SDS011;11825;51.898;8.202;2023-01-09T17:46:47;7.43;;;4.40;;
14939;SDS011;11825;51.898;8.202;2023-01-09T17:51:59;8.00;;;5.87;;
14939;SDS011;11825;51.898;8.202;2023-01-09T17:57:03;9.47;;;8.07;;
14939;SDS011;11825;51.898;8.202;2023-01-09T18:02:20;12.03;;;8.63;;
14939;SDS011;11825;51.898;8.202;2023-01-09T18:07:25;11.07;;;8.03;;
14939;SDS011;11825;51.898;8.202;2023-01-09T18:12:28;10.17;;;9.17;;
14939;SDS011;11825;51.898;8.202;2023-01-09T18:17:29;11.83;;;8.67;;
14939;SDS011;11825;51.898;8.202;2023-01-09T18:22:37;11.10;;;9.27;;
14939;SDS011;11825;51.898;8.202;2023-01-09T18:27:40;14.67;;;10.30;;
14939;SDS011;11825;51.898;8.202;2023-01-09T18:32:42;10.83;;;9.23;;
14939;SDS011;11825;51.898;8.202;2023-01-09T18:38:30;11.90;;;9.80;;
14939;SDS011;11825;51.898;8.202;2023-01-09T18:44:03;13.60;;;9.60;;
14939;SDS011;11825;51.898;8.202;2023-01-09T18:49:39;16.27;;;10.43;;
14939;SDS011;11825;51.898;8.202;2023-01-09T18:54:55;7.20;;;6.47;;
14939;SDS011;11825;51.898;8.202;2023-01-09T18:59:57;7.67;;;4.70;;
14939;SDS011;11825;51.898;8.202;2023-01-09T19:05:02;5.70;;;3.27;;
14939;SDS011;11825;51.898;8.202;2023-01-09T19:27:06;8.70;;;4.93;;
14939;SDS011;11825;51.898;8.202;2023-01-09T19:32:07;8.47;;;6.10;;
14939;SDS011;11825;51.898;8.202;2023-01-09T19:42:18;14.17;;;8.27;;
14939;SDS011;11825;51.898;8.202;2023-01-09T19:47:20;13.80;;;8.43;;
14939;SDS011;11825;51.898;8.202;2023-01-09T19:52:22;13.90;;;9.60;;
14939;SDS011;11825;51.898;8.202;2023-01-09T20:02:33;13.33;;;9.43;;
14939;SDS011;11825;51.898;8.202;2023-01-09T20:07:35;10.97;;;9.33;;
14939;SDS011;11825;51.898;8.202;2023-01-09T20:12:37;13.47;;;9.73;;
14939;SDS011;11825;51.898;8.202;2023-01-09T20:17:40;13.30;;;10.40;;
14939;SDS011;11825;51.898;8.202;2023-01-09T20:22:42;12.30;;;10.47;;
14939;SDS011;11825;51.898;8.202;2023-01-09T20:27:43;14.73;;;9.40;;
14939;SDS011;11825;51.898;8.202;2023-01-09T20:32:55;12.57;;;8.60;;
14939;SDS011;11825;51.898;8.202;2023-01-09T20:38:00;14.83;;;8.83;;
14939;SDS011;11825;51.898;8.202;2023-01-09T20:43:02;11.80;;;8.67;;
14939;SDS011;11825;51.898;8.202;2023-01-09T20:48:05;11.43;;;8.20;;
14939;SDS011;11825;51.898;8.202;2023-01-09T20:53:08;11.77;;;8.80;;
14939;SDS011;11825;51.898;8.202;2023-01-09T21:03:33;12.90;;;9.73;;
14939;SDS011;11825;51.898;8.202;2023-01-09T21:08:35;16.27;;;9.23;;
14939;SDS011;11825;51.898;8.202;2023-01-09T21:13:37;12.93;;;10.30;;
14939;SDS011;11825;51.898;8.202;2023-01-09T21:40:29;14.80;;;13.00;;
14939;SDS011;11825;51.898;8.202;2023-01-09T21:45:30;19.83;;;12.17;;
14939;SDS011;11825;51.898;8.202;2023-01-09T22:17:22;18.67;;;12.87;;
14939;SDS011;11825;51.898;8.202;2023-01-09T22:27:54;15.43;;;11.33;;
14939;SDS011;11825;51.898;8.202;2023-01-09T22:38:19;13.37;;;11.70;;
14939;SDS011;11825;51.898;8.202;2023-01-09T22:43:20;19.70;;;11.97;;
14939;SDS011;11825;51.898;8.202;2023-01-09T22:48:22;16.73;;;11.07;;
14939;SDS011;11825;51.898;8.202;2023-01-09T22:53:25;10.30;;;7.60;;
14939;SDS011;11825;51.898;8.202;2023-01-09T22:58:27;12.27;;;6.00;;
14939;SDS011;11825;51.898;8.202;2023-01-09T23:03:30;7.57;;;4.77;;
14939;SDS011;11825;51.898;8.202;2023-01-09T23:08:32;5.93;;;3.70;;
14939;SDS011;11825;51.898;8.202;2023-01-09T23:13:34;8.90;;;4.40;;
14939;SDS011;11825;51.898;8.202;2023-01-09T23:29:28;5.80;;;2.27;;
14939;SDS011;11825;51.898;8.202;2023-01-09T23:34:48;7.00;;;3.20;;
14939;SDS011;11825;51.898;8.202;2023-01-09T23:39:50;4.17;;;2.37;;
14939;SDS011;11825;51.898;8.202;2023-01-09T23:50:31;3.73;;;2.93;;
14939;SDS011;11825;51.898;8.202;2023-01-09T23:55:34;22.63;;;14.67;;
